createdAt,value
2018-07-23T00:00:03.432Z,99.90
2018-07-23T00:02:36.542Z,99.90
2018-07-23T00:07:34.654Z,99.90
2018-07-23T00:10:02.775Z,99.90
2018-07-23T00:14:58.802Z,99.90
2018-07-23T00:19:54.803Z,99.90
2018-07-23T00:22:22.770Z,99.90
2018-07-23T00:24:50.722Z,99.90
2018-07-23T00:27:18.722Z,99.90
2018-07-23T00:29:46.676Z,99.90
2018-07-23T00:32:14.755Z,99.90
2018-07-23T00:34:42.884Z,99.90
2018-07-23T00:37:10.915Z,99.90
2018-07-23T00:42:06.852Z,99.90
2018-07-23T00:47:02.796Z,99.90
2018-07-23T00:49:30.750Z,99.90
2018-07-23T00:56:54.852Z,99.90
2018-07-23T00:59:22.833Z,99.90
2018-07-23T01:01:50.864Z,99.90
2018-07-23T01:04:18.908Z,99.90
2018-07-23T01:06:46.958Z,99.90
2018-07-23T01:09:14.922Z,99.90
2018-07-23T01:14:11.142Z,99.90
2018-07-23T01:19:07.292Z,99.90
2018-07-23T01:24:03.331Z,99.90
2018-07-23T01:28:59.289Z,99.90
2018-07-23T01:31:27.265Z,99.90
2018-07-23T01:33:55.278Z,99.90
2018-07-23T01:36:23.284Z,99.90
2018-07-23T01:38:51.297Z,99.90
2018-07-23T01:41:19.328Z,99.90
2018-07-23T01:46:15.568Z,99.90
2018-07-23T01:51:11.483Z,99.90
2018-07-23T01:56:07.379Z,99.90
2018-07-23T01:58:35.407Z,99.90
2018-07-23T02:01:12.445Z,99.90
2018-07-23T02:03:41.428Z,99.90
2018-07-23T02:06:09.717Z,99.90
2018-07-23T02:08:37.735Z,99.90
2018-07-23T02:11:06.419Z,99.90
2018-07-23T02:13:34.447Z,99.90
2018-07-23T02:16:02.480Z,99.90
2018-07-23T02:18:30.725Z,99.90
2018-07-23T02:20:58.793Z,99.90
2018-07-23T02:23:26.748Z,99.90
2018-07-23T02:25:54.853Z,99.90
2018-07-23T02:28:22.815Z,99.90
2018-07-23T02:30:50.966Z,99.90
2018-07-23T02:33:18.979Z,99.90
2018-07-23T02:35:46.993Z,99.90
2018-07-23T02:38:14.954Z,99.90
2018-07-23T02:40:42.942Z,99.90
2018-07-23T02:45:38.978Z,99.90
2018-07-23T02:48:06.979Z,99.90
2018-07-23T02:50:35.184Z,99.90
2018-07-23T02:53:03.209Z,99.90
2018-07-23T02:55:31.295Z,99.90
2018-07-23T02:57:59.292Z,99.90
2018-07-23T03:00:27.320Z,99.90
2018-07-23T03:02:55.482Z,99.90
2018-07-23T03:05:23.522Z,99.90
2018-07-23T03:07:51.607Z,99.90
2018-07-23T03:10:19.675Z,99.90
2018-07-23T03:12:47.649Z,99.90
2018-07-23T03:15:15.611Z,99.90
2018-07-23T03:22:39.827Z,99.90
2018-07-23T03:25:07.932Z,99.90
2018-07-23T03:27:35.923Z,99.90
2018-07-23T03:30:04.373Z,99.90
2018-07-23T03:32:32.380Z,99.90
2018-07-23T03:35:00.393Z,99.90
2018-07-23T03:37:28.355Z,99.90
2018-07-23T03:39:56.459Z,99.90
2018-07-23T03:42:24.464Z,99.90
2018-07-23T03:44:52.479Z,99.90
2018-07-23T03:47:20.498Z,99.90
2018-07-23T03:49:48.494Z,99.90
2018-07-23T03:54:45.076Z,99.90
2018-07-23T03:57:13.188Z,99.90
2018-07-23T03:59:41.280Z,99.90
2018-07-23T04:02:09.437Z,99.90
2018-07-23T04:04:37.467Z,99.90
2018-07-23T04:07:05.614Z,99.90
2018-07-23T04:09:33.729Z,99.90
2018-07-23T04:12:01.940Z,99.90
2018-07-23T04:16:58.138Z,99.90
2018-07-23T04:19:26.129Z,99.90
2018-07-23T04:21:54.133Z,99.90
2018-07-23T04:24:22.109Z,99.90
2018-07-23T04:26:50.171Z,99.90
2018-07-23T04:31:46.247Z,99.90
2018-07-23T04:34:14.278Z,99.90
2018-07-23T04:39:10.263Z,99.90
2018-07-23T04:41:38.287Z,99.90
2018-07-23T04:46:34.354Z,99.90
2018-07-23T04:49:02.346Z,99.90
2018-07-23T04:51:30.383Z,99.90
2018-07-23T04:53:58.415Z,99.90
2018-07-23T04:56:26.450Z,99.90
2018-07-23T04:58:54.448Z,99.90
2018-07-23T05:01:22.445Z,99.90
2018-07-23T05:03:50.496Z,99.90
2018-07-23T05:11:14.470Z,99.90
2018-07-23T05:13:42.532Z,99.90
2018-07-23T05:16:10.601Z,99.90
2018-07-23T05:18:38.620Z,99.90
2018-07-23T05:21:06.744Z,99.90
2018-07-23T05:23:34.741Z,99.90
2018-07-23T05:26:02.790Z,99.90
2018-07-23T05:28:30.727Z,99.90
2018-07-23T05:30:58.752Z,99.90
2018-07-23T05:33:26.756Z,99.90
2018-07-23T05:35:54.768Z,99.90
2018-07-23T05:38:22.835Z,99.90
2018-07-23T05:40:51.910Z,99.90
2018-07-23T05:43:20.413Z,99.90
2018-07-23T05:45:48.512Z,99.90
2018-07-23T05:50:44.445Z,99.90
2018-07-23T05:53:12.479Z,99.90
2018-07-23T05:55:40.505Z,99.90
2018-07-23T06:03:05.566Z,99.90
2018-07-23T06:05:33.572Z,99.90
2018-07-23T06:08:03.007Z,99.90
2018-07-23T06:10:32.617Z,99.90
2018-07-23T06:13:00.949Z,99.90
2018-07-23T06:15:28.912Z,99.90
2018-07-23T06:17:57.001Z,99.90
2018-07-23T06:20:24.998Z,99.90
2018-07-23T06:25:21.080Z,99.90
2018-07-23T06:27:49.070Z,99.90
2018-07-23T06:30:17.191Z,99.90
2018-07-23T06:37:41.236Z,99.90
2018-07-23T06:42:37.137Z,99.90
2018-07-23T06:45:05.162Z,99.90
2018-07-23T06:47:33.217Z,99.90
2018-07-23T06:50:01.184Z,99.90
2018-07-23T06:52:29.182Z,99.90
2018-07-23T06:57:25.124Z,99.90
2018-07-23T07:02:21.088Z,99.90
2018-07-23T07:04:49.108Z,99.90
2018-07-23T07:07:17.075Z,99.90
2018-07-23T07:09:45.102Z,99.90
2018-07-23T07:12:13.091Z,99.90
2018-07-23T07:14:41.072Z,99.90
2018-07-23T07:17:09.043Z,99.90
2018-07-23T07:19:37.034Z,99.90
2018-07-23T07:24:32.959Z,99.90
2018-07-23T07:27:00.924Z,99.90
2018-07-23T07:29:28.895Z,99.90
2018-07-23T07:31:56.833Z,99.90
2018-07-23T07:34:24.812Z,99.90
2018-07-23T07:36:52.832Z,99.90
2018-07-23T07:39:20.860Z,99.90
2018-07-23T07:41:48.818Z,99.90
2018-07-23T07:44:16.785Z,99.90
2018-07-23T07:46:44.772Z,99.90
2018-07-23T07:49:12.745Z,99.90
2018-07-23T07:54:08.675Z,99.90
2018-07-23T07:56:36.652Z,99.90
2018-07-23T08:04:00.636Z,99.90
2018-07-23T08:06:28.577Z,99.90
2018-07-23T08:08:56.582Z,99.90
2018-07-23T08:11:24.566Z,99.90
2018-07-23T08:16:20.493Z,99.90
2018-07-23T08:18:48.439Z,99.90
2018-07-23T08:21:16.416Z,99.90
2018-07-23T08:23:44.399Z,99.90
2018-07-23T08:26:12.646Z,99.90
2018-07-23T08:28:40.676Z,99.90
2018-07-23T08:31:08.609Z,99.90
2018-07-23T08:33:36.549Z,99.90
2018-07-23T08:36:04.631Z,99.90
2018-07-23T08:38:32.638Z,99.90
2018-07-23T08:41:00.552Z,99.90
2018-07-23T08:43:28.550Z,99.90
2018-07-23T08:45:56.582Z,99.90
2018-07-23T08:48:24.583Z,99.90
2018-07-23T08:50:52.544Z,99.90
2018-07-23T08:53:20.551Z,99.90
2018-07-23T08:55:48.479Z,99.90
2018-07-23T08:58:16.404Z,99.90
2018-07-23T09:00:44.388Z,99.90
2018-07-23T09:03:12.337Z,99.90
2018-07-23T09:05:40.296Z,99.90
2018-07-23T09:08:08.211Z,99.90
2018-07-23T09:10:36.166Z,99.90
2018-07-23T09:13:04.134Z,99.90
2018-07-23T09:15:32.048Z,99.90
2018-07-23T09:18:00.052Z,99.90
2018-07-23T09:20:27.977Z,99.90
2018-07-23T09:25:43.421Z,99.90
2018-07-23T09:28:11.393Z,99.90
2018-07-23T09:30:52.689Z,99.90
2018-07-23T09:33:21.922Z,99.90
2018-07-23T09:38:18.866Z,99.90
2018-07-23T09:40:46.839Z,99.90
2018-07-23T09:43:14.772Z,99.90
2018-07-23T09:45:43.245Z,99.90
2018-07-23T09:50:39.048Z,99.90
2018-07-23T09:53:07.030Z,99.90
2018-07-23T09:55:34.996Z,99.90
2018-07-23T10:00:49.139Z,99.90
2018-07-23T10:05:45.057Z,99.90
2018-07-23T10:10:40.952Z,99.90
2018-07-23T10:13:08.882Z,99.90
2018-07-23T10:15:36.877Z,99.90
2018-07-23T10:18:04.837Z,99.90
2018-07-23T10:20:32.836Z,99.90
2018-07-23T10:23:00.832Z,99.90
2018-07-23T10:27:56.818Z,99.90
2018-07-23T10:30:24.729Z,99.90
2018-07-23T10:32:52.703Z,99.90
2018-07-23T10:35:21.079Z,99.90
2018-07-23T10:40:16.977Z,99.90
2018-07-23T10:42:45.019Z,99.90
2018-07-23T10:45:12.981Z,99.90
2018-07-23T10:47:40.938Z,99.90
2018-07-23T10:52:36.859Z,99.90
2018-07-23T10:57:32.841Z,99.90
2018-07-23T11:00:00.761Z,99.90
2018-07-23T11:04:56.658Z,99.90
2018-07-23T11:07:24.684Z,99.90
2018-07-23T11:09:52.667Z,99.90
2018-07-23T11:12:20.589Z,99.90
2018-07-23T11:14:48.615Z,99.90
2018-07-23T11:17:16.564Z,99.80
2018-07-23T11:19:44.526Z,99.90
2018-07-23T11:22:12.501Z,99.00
2018-07-23T11:24:45.444Z,99.00
2018-07-23T11:27:08.601Z,99.80
2018-07-23T11:29:36.535Z,97.70
2018-07-23T11:32:04.580Z,97.70
2018-07-23T11:34:32.518Z,99.10
2018-07-23T11:39:28.470Z,98.40
2018-07-23T11:41:56.424Z,97.90
2018-07-23T11:44:24.388Z,97.10
2018-07-23T11:49:20.281Z,96.00
2018-07-23T11:51:48.212Z,97.00
2018-07-23T11:54:16.143Z,96.50
2018-07-23T11:56:44.175Z,95.40
2018-07-23T12:01:40.109Z,95.30
2018-07-23T12:04:10.406Z,94.20
2018-07-23T12:06:35.932Z,94.40
2018-07-23T12:09:07.345Z,95.20
2018-07-23T12:11:35.340Z,93.20
2018-07-23T12:14:03.459Z,92.90
2018-07-23T12:16:31.397Z,93.30
2018-07-23T12:18:59.396Z,92.00
2018-07-23T12:21:27.364Z,90.40
2018-07-23T12:23:55.333Z,87.80
2018-07-23T12:26:23.274Z,88.70
2018-07-23T12:28:51.328Z,88.20
2018-07-23T12:31:19.316Z,87.00
2018-07-23T12:33:47.268Z,88.60
2018-07-23T12:36:15.229Z,85.90
2018-07-23T12:38:43.172Z,85.90
2018-07-23T12:46:07.001Z,88.80
2018-07-23T12:48:34.971Z,85.60
2018-07-23T12:51:02.933Z,85.50
2018-07-23T12:53:30.907Z,85.50
2018-07-23T12:55:58.845Z,85.10
2018-07-23T13:00:54.722Z,83.80
2018-07-23T13:03:22.638Z,82.60
2018-07-23T13:08:18.528Z,80.50
2018-07-23T13:10:46.495Z,85.40
2018-07-23T13:13:14.493Z,85.80
2018-07-23T13:15:42.497Z,81.10
2018-07-23T13:23:06.337Z,79.90
2018-07-23T13:25:34.320Z,79.40
2018-07-23T13:28:02.224Z,78.00
2018-07-23T13:30:30.161Z,79.90
2018-07-23T13:32:58.108Z,79.80
2018-07-23T13:35:26.386Z,80.00
2018-07-23T13:37:54.336Z,79.80
2018-07-23T13:45:18.167Z,78.20
2018-07-23T13:47:46.148Z,87.40
2018-07-23T13:50:14.082Z,90.20
2018-07-23T13:52:42.057Z,89.70
2018-07-23T13:55:10.025Z,78.70
2018-07-23T13:57:37.982Z,79.20
2018-07-23T14:00:06.373Z,76.60
2018-07-23T14:02:34.304Z,77.40
2018-07-23T14:05:02.326Z,76.80
2018-07-23T14:07:30.254Z,77.00
2018-07-23T14:09:58.258Z,77.00
2018-07-23T14:12:26.187Z,75.00
2018-07-23T14:14:54.205Z,74.00
2018-07-23T14:17:22.134Z,75.10
2018-07-23T14:19:50.049Z,74.30
2018-07-23T14:22:18.046Z,73.80
2018-07-23T14:27:13.896Z,72.80
2018-07-23T14:29:41.845Z,73.20
2018-07-23T14:34:37.707Z,72.30
2018-07-23T14:37:05.629Z,71.40
2018-07-23T14:39:33.616Z,70.80
2018-07-23T14:44:29.541Z,66.40
2018-07-23T14:49:25.412Z,65.10
2018-07-23T14:51:53.376Z,63.70
2018-07-23T14:54:21.312Z,62.20
2018-07-23T14:56:49.267Z,62.40
2018-07-23T15:01:45.206Z,61.30
2018-07-23T15:06:41.101Z,60.80
2018-07-23T15:09:09.742Z,61.10
2018-07-23T15:11:37.785Z,60.50
2018-07-23T15:14:05.860Z,61.50
2018-07-23T15:16:33.948Z,61.50
2018-07-23T15:19:01.982Z,60.40
2018-07-23T15:21:30.385Z,58.50
2018-07-23T15:26:26.720Z,59.50
2018-07-23T15:28:54.727Z,59.00
2018-07-23T15:31:22.673Z,60.80
2018-07-23T15:36:18.585Z,65.50
2018-07-23T15:38:46.741Z,66.70
2018-07-23T15:41:14.716Z,75.80
2018-07-23T15:43:42.676Z,68.30
2018-07-23T15:46:10.663Z,69.00
2018-07-23T15:48:38.569Z,68.20
2018-07-23T15:51:06.536Z,70.10
2018-07-23T15:53:34.462Z,70.70
2018-07-23T15:56:02.424Z,70.50
2018-07-23T15:58:30.398Z,71.90
2018-07-23T16:00:58.325Z,81.00
2018-07-23T16:03:26.319Z,72.70
2018-07-23T16:05:54.246Z,71.60
2018-07-23T16:08:22.251Z,72.00
2018-07-23T16:10:50.215Z,70.50
2018-07-23T16:13:18.168Z,68.10
2018-07-23T16:15:46.099Z,68.00
2018-07-23T16:25:37.949Z,68.60
2018-07-23T16:28:06.056Z,67.10
2018-07-23T16:30:34.035Z,66.10
2018-07-23T16:33:01.993Z,64.80
2018-07-23T16:35:29.947Z,65.80
2018-07-23T16:42:53.819Z,68.80
2018-07-23T16:45:21.758Z,70.90
2018-07-23T16:47:49.783Z,70.70
2018-07-23T16:52:45.631Z,70.70
2018-07-23T16:55:13.602Z,70.20
2018-07-23T16:57:47.626Z,69.70
2018-07-23T17:00:15.634Z,78.00
2018-07-23T17:02:43.601Z,70.40
2018-07-23T17:05:11.581Z,79.20
2018-07-23T17:07:39.520Z,69.60
2018-07-23T17:10:07.471Z,70.20
2018-07-23T17:12:35.452Z,71.10
2018-07-23T17:15:03.428Z,71.20
2018-07-23T17:17:31.412Z,71.50
2018-07-23T17:19:59.363Z,71.20
2018-07-23T17:22:27.376Z,70.80
2018-07-23T17:27:23.349Z,70.10
2018-07-23T17:29:51.302Z,79.00
2018-07-23T17:32:19.246Z,71.00
2018-07-23T17:37:15.133Z,72.60
2018-07-23T17:39:43.298Z,71.90
2018-07-23T17:42:11.300Z,71.90
2018-07-23T17:44:39.249Z,72.60
2018-07-23T17:47:07.372Z,81.60
2018-07-23T17:52:03.230Z,72.60
2018-07-23T17:54:31.195Z,72.00
2018-07-23T17:56:59.134Z,72.00
2018-07-23T18:01:55.005Z,72.00
2018-07-23T18:04:22.955Z,71.70
2018-07-23T18:06:50.880Z,71.60
2018-07-23T18:09:18.810Z,71.20
2018-07-23T18:11:46.788Z,71.40
2018-07-23T18:14:14.705Z,72.40
2018-07-23T18:19:10.671Z,74.20
2018-07-23T18:21:38.710Z,73.80
2018-07-23T18:26:36.025Z,74.30
2018-07-23T18:29:04.130Z,75.90
2018-07-23T18:31:32.150Z,76.30
2018-07-23T18:34:00.108Z,76.70
2018-07-23T18:36:29.532Z,78.00
2018-07-23T18:39:13.905Z,78.40
2018-07-23T18:41:41.943Z,79.70
2018-07-23T18:44:09.894Z,80.30
2018-07-23T18:46:37.861Z,81.10
2018-07-23T18:49:49.432Z,82.80
2018-07-23T18:54:47.782Z,83.80
2018-07-23T18:57:15.769Z,84.30
2018-07-23T18:59:43.740Z,85.20
2018-07-23T19:02:12.847Z,86.00
2018-07-23T19:09:37.051Z,88.70
2018-07-23T19:12:05.196Z,90.10
2018-07-23T19:14:33.171Z,90.40
2018-07-23T19:17:02.163Z,90.90
2018-07-23T19:19:30.152Z,91.30
2018-07-23T19:21:58.148Z,91.80
2018-07-23T19:24:26.110Z,92.10
2018-07-23T19:29:22.380Z,92.70
2018-07-23T19:31:50.573Z,93.20
2018-07-23T19:34:18.556Z,94.00
2018-07-23T19:36:46.582Z,94.50
2018-07-23T19:39:15.865Z,99.60
2018-07-23T19:41:51.792Z,95.60
2018-07-23T19:44:20.079Z,96.10
2018-07-23T19:46:57.493Z,97.10
2018-07-23T19:49:27.220Z,96.80
2018-07-23T19:51:59.694Z,96.70
2018-07-23T19:54:28.244Z,96.80
2018-07-23T19:56:56.817Z,96.70
2018-07-23T19:59:25.770Z,99.90
2018-07-23T20:01:54.139Z,98.20
2018-07-23T20:04:23.071Z,99.10
2018-07-23T20:06:51.066Z,99.00
2018-07-23T20:11:49.572Z,99.30
2018-07-23T20:14:17.584Z,99.40
2018-07-23T20:16:45.519Z,99.90
2018-07-23T20:19:23.227Z,99.90
2018-07-23T20:21:53.483Z,99.90
2018-07-23T20:27:04.778Z,99.90
2018-07-23T20:29:38.737Z,99.90
2018-07-23T20:32:07.998Z,99.90
2018-07-23T20:34:53.968Z,99.90
2018-07-23T20:37:24.305Z,99.90
2018-07-23T20:39:52.943Z,99.90
2018-07-23T20:42:23.780Z,99.90
2018-07-23T20:44:57.835Z,99.90
2018-07-23T20:47:27.498Z,99.90
2018-07-23T20:50:01.750Z,99.90
2018-07-23T20:52:37.458Z,99.90
2018-07-23T20:55:07.026Z,99.90
2018-07-23T20:57:48.578Z,99.90
2018-07-23T21:02:59.582Z,99.90
2018-07-23T21:05:32.741Z,99.90
2018-07-23T21:10:42.151Z,99.90
2018-07-23T21:13:16.705Z,99.90
2018-07-23T21:15:50.036Z,99.90
2018-07-23T21:18:20.779Z,99.90
2018-07-23T21:20:50.910Z,99.90
2018-07-23T21:23:23.561Z,99.90
2018-07-23T21:25:54.687Z,99.90
2018-07-23T21:28:28.833Z,99.90
2018-07-23T21:31:00.665Z,99.90
2018-07-23T21:36:05.659Z,99.90
2018-07-23T21:38:34.707Z,99.90
2018-07-23T21:41:04.556Z,99.90
2018-07-23T21:43:32.993Z,99.90
2018-07-23T21:46:04.255Z,99.90
2018-07-23T21:51:03.736Z,99.90
2018-07-23T21:53:33.630Z,99.90
2018-07-23T21:56:03.478Z,99.90
2018-07-23T21:58:31.596Z,99.90
2018-07-23T22:00:59.566Z,99.90
2018-07-23T22:03:27.547Z,99.90
2018-07-23T22:05:55.539Z,99.90
2018-07-23T22:08:23.531Z,99.90
2018-07-23T22:10:51.567Z,99.90
2018-07-23T22:13:19.518Z,99.90
2018-07-23T22:18:15.511Z,99.90
2018-07-23T22:20:43.502Z,99.90
2018-07-23T22:23:11.479Z,99.90
2018-07-23T22:25:39.476Z,99.90
2018-07-23T22:28:07.401Z,99.90
2018-07-23T22:30:35.383Z,99.90
2018-07-23T22:35:31.459Z,99.90
2018-07-23T22:37:59.433Z,99.90
2018-07-23T22:40:27.537Z,99.90
2018-07-23T22:42:55.537Z,99.90
2018-07-23T22:50:19.483Z,99.90
2018-07-23T22:52:47.539Z,99.90
2018-07-23T22:55:15.522Z,99.90
2018-07-23T22:57:43.719Z,99.90
2018-07-23T23:00:11.622Z,99.90
2018-07-23T23:05:08.083Z,99.90
2018-07-23T23:07:36.004Z,99.90
2018-07-23T23:12:32.124Z,99.90
2018-07-23T23:15:00.165Z,99.90
2018-07-23T23:17:28.147Z,99.90
2018-07-23T23:19:56.159Z,99.90
2018-07-23T23:22:24.222Z,99.90
2018-07-23T23:24:52.221Z,99.90
2018-07-23T23:29:48.115Z,99.90
2018-07-23T23:32:16.301Z,99.90
2018-07-23T23:34:44.264Z,99.90
2018-07-23T23:37:12.267Z,99.90
2018-07-23T23:39:40.269Z,99.90
2018-07-23T23:42:09.319Z,99.90
2018-07-23T23:47:05.250Z,99.90
2018-07-23T23:49:33.389Z,99.90
2018-07-23T23:52:01.340Z,99.90
2018-07-23T23:54:29.409Z,99.90
2018-07-23T23:56:57.370Z,99.90
2018-07-23T23:59:25.290Z,99.90
